sensor_id;sensor_type;location;lat;lon;timestamp;P1;durP1;ratioP1;P2;durP2;ratioP2
3543;SDS011;1786;52.870;9.578;2024-03-02T00:00:50;11.10;;;8.80;;
3543;SDS011;1786;52.870;9.578;2024-03-02T00:03:18;13.00;;;9.60;;
3543;SDS011;1786;52.870;9.578;2024-03-02T00:05:51;11.93;;;9.40;;
3543;SDS011;1786;52.870;9.578;2024-03-02T00:08:25;12.37;;;8.50;;
3543;SDS011;1786;52.870;9.578;2024-03-02T00:10:58;11.10;;;8.83;;
3543;SDS011;1786;52.870;9.578;2024-03-02T00:13:25;13.67;;;9.07;;
3543;SDS011;1786;52.870;9.578;2024-03-02T00:18:27;19.60;;;9.40;;
3543;SDS011;1786;52.870;9.578;2024-03-02T00:20:59;16.33;;;10.00;;
3543;SDS011;1786;52.870;9.578;2024-03-02T00:23:27;17.30;;;9.70;;
3543;SDS011;1786;52.870;9.578;2024-03-02T00:25:58;11.70;;;8.80;;
3543;SDS011;1786;52.870;9.578;2024-03-02T00:28:29;11.90;;;9.20;;
3543;SDS011;1786;52.870;9.578;2024-03-02T00:31:03;13.73;;;10.27;;
3543;SDS011;1786;52.870;9.578;2024-03-02T00:33:35;12.77;;;9.57;;
3543;SDS011;1786;52.870;9.578;2024-03-02T00:36:04;15.10;;;9.67;;
3543;SDS011;1786;52.870;9.578;2024-03-02T00:38:33;11.43;;;8.70;;
3543;SDS011;1786;52.870;9.578;2024-03-02T00:41:04;13.50;;;9.57;;
3543;SDS011;1786;52.870;9.578;2024-03-02T00:46:23;13.80;;;8.60;;
3543;SDS011;1786;52.870;9.578;2024-03-02T00:48:54;13.57;;;9.10;;
3543;SDS011;1786;52.870;9.578;2024-03-02T00:51:26;13.80;;;10.20;;
3543;SDS011;1786;52.870;9.578;2024-03-02T00:53:55;10.97;;;9.70;;
3543;SDS011;1786;52.870;9.578;2024-03-02T00:56:24;14.53;;;10.13;;
3543;SDS011;1786;52.870;9.578;2024-03-02T00:58:51;12.63;;;9.07;;
3543;SDS011;1786;52.870;9.578;2024-03-02T01:01:19;10.90;;;9.20;;
3543;SDS011;1786;52.870;9.578;2024-03-02T01:03:49;13.30;;;9.30;;
3543;SDS011;1786;52.870;9.578;2024-03-02T01:06:17;15.40;;;9.33;;
3543;SDS011;1786;52.870;9.578;2024-03-02T01:08:43;10.90;;;9.27;;
3543;SDS011;1786;52.870;9.578;2024-03-02T01:11:10;11.73;;;9.70;;
3543;SDS011;1786;52.870;9.578;2024-03-02T01:13:37;13.13;;;9.23;;
3543;SDS011;1786;52.870;9.578;2024-03-02T01:16:04;12.60;;;9.33;;
3543;SDS011;1786;52.870;9.578;2024-03-02T01:18:31;11.03;;;8.60;;
3543;SDS011;1786;52.870;9.578;2024-03-02T01:20:57;13.40;;;8.93;;
3543;SDS011;1786;52.870;9.578;2024-03-02T01:23:24;13.37;;;8.70;;
3543;SDS011;1786;52.870;9.578;2024-03-02T01:25:51;13.53;;;9.17;;
3543;SDS011;1786;52.870;9.578;2024-03-02T01:28:18;11.67;;;8.50;;
3543;SDS011;1786;52.870;9.578;2024-03-02T01:30:45;13.73;;;8.67;;
3543;SDS011;1786;52.870;9.578;2024-03-02T01:33:12;12.43;;;9.83;;
3543;SDS011;1786;52.870;9.578;2024-03-02T01:35:39;13.27;;;9.07;;
3543;SDS011;1786;52.870;9.578;2024-03-02T01:38:06;12.50;;;8.47;;
3543;SDS011;1786;52.870;9.578;2024-03-02T01:40:33;13.40;;;9.23;;
3543;SDS011;1786;52.870;9.578;2024-03-02T01:43:00;13.93;;;9.83;;
3543;SDS011;1786;52.870;9.578;2024-03-02T01:45:28;11.00;;;8.40;;
3543;SDS011;1786;52.870;9.578;2024-03-02T01:47:55;12.93;;;10.13;;
3543;SDS011;1786;52.870;9.578;2024-03-02T01:50:29;11.17;;;9.37;;
3543;SDS011;1786;52.870;9.578;2024-03-02T01:52:58;9.83;;;8.40;;
3543;SDS011;1786;52.870;9.578;2024-03-02T01:55:25;12.83;;;8.53;;
3543;SDS011;1786;52.870;9.578;2024-03-02T01:57:52;9.77;;;7.90;;
3543;SDS011;1786;52.870;9.578;2024-03-02T02:00:19;15.10;;;8.20;;
3543;SDS011;1786;52.870;9.578;2024-03-02T02:02:47;10.77;;;8.20;;
3543;SDS011;1786;52.870;9.578;2024-03-02T02:05:14;10.10;;;8.23;;
3543;SDS011;1786;52.870;9.578;2024-03-02T02:07:41;11.03;;;8.37;;
3543;SDS011;1786;52.870;9.578;2024-03-02T02:10:12;10.73;;;8.10;;
3543;SDS011;1786;52.870;9.578;2024-03-02T02:12:39;9.27;;;8.20;;
3543;SDS011;1786;52.870;9.578;2024-03-02T02:15:27;9.73;;;7.73;;
3543;SDS011;1786;52.870;9.578;2024-03-02T02:17:54;10.20;;;8.33;;
3543;SDS011;1786;52.870;9.578;2024-03-02T02:20:23;9.73;;;8.30;;
3543;SDS011;1786;52.870;9.578;2024-03-02T02:22:57;13.30;;;9.53;;
3543;SDS011;1786;52.870;9.578;2024-03-02T02:25:28;10.03;;;8.33;;
3543;SDS011;1786;52.870;9.578;2024-03-02T02:27:56;12.57;;;8.70;;
3543;SDS011;1786;52.870;9.578;2024-03-02T02:30:27;9.50;;;7.97;;
3543;SDS011;1786;52.870;9.578;2024-03-02T02:32:55;12.67;;;8.33;;
3543;SDS011;1786;52.870;9.578;2024-03-02T02:35:22;12.40;;;8.23;;
3543;SDS011;1786;52.870;9.578;2024-03-02T02:37:50;11.23;;;7.80;;
3543;SDS011;1786;52.870;9.578;2024-03-02T02:40:19;12.17;;;8.70;;
3543;SDS011;1786;52.870;9.578;2024-03-02T02:42:46;8.90;;;7.93;;
3543;SDS011;1786;52.870;9.578;2024-03-02T02:45:13;12.70;;;8.83;;
3543;SDS011;1786;52.870;9.578;2024-03-02T02:47:41;9.53;;;8.30;;
3543;SDS011;1786;52.870;9.578;2024-03-02T02:50:08;9.03;;;8.03;;
3543;SDS011;1786;52.870;9.578;2024-03-02T02:52:36;10.80;;;8.53;;
3543;SDS011;1786;52.870;9.578;2024-03-02T02:55:12;10.23;;;8.20;;
3543;SDS011;1786;52.870;9.578;2024-03-02T02:57:40;10.30;;;8.17;;
3543;SDS011;1786;52.870;9.578;2024-03-02T03:00:13;11.10;;;8.13;;
3543;SDS011;1786;52.870;9.578;2024-03-02T03:02:43;11.43;;;8.20;;
3543;SDS011;1786;52.870;9.578;2024-03-02T03:05:12;8.60;;;7.40;;
3543;SDS011;1786;52.870;9.578;2024-03-02T03:07:41;10.03;;;8.40;;
3543;SDS011;1786;52.870;9.578;2024-03-02T03:10:08;10.17;;;8.43;;
3543;SDS011;1786;52.870;9.578;2024-03-02T03:12:35;12.57;;;7.80;;
3543;SDS011;1786;52.870;9.578;2024-03-02T03:15:03;14.40;;;9.23;;
3543;SDS011;1786;52.870;9.578;2024-03-02T03:17:31;9.70;;;8.40;;
3543;SDS011;1786;52.870;9.578;2024-03-02T03:19:58;14.23;;;9.17;;
3543;SDS011;1786;52.870;9.578;2024-03-02T03:22:24;13.83;;;9.60;;
3543;SDS011;1786;52.870;9.578;2024-03-02T03:24:51;14.07;;;8.77;;
3543;SDS011;1786;52.870;9.578;2024-03-02T03:27:18;18.20;;;10.70;;
3543;SDS011;1786;52.870;9.578;2024-03-02T03:29:46;10.60;;;8.23;;
3543;SDS011;1786;52.870;9.578;2024-03-02T03:32:13;11.80;;;9.60;;
3543;SDS011;1786;52.870;9.578;2024-03-02T03:34:40;18.27;;;9.90;;
3543;SDS011;1786;52.870;9.578;2024-03-02T03:37:07;17.17;;;9.40;;
3543;SDS011;1786;52.870;9.578;2024-03-02T03:39:34;16.07;;;10.67;;
3543;SDS011;1786;52.870;9.578;2024-03-02T03:42:02;16.97;;;10.43;;
3543;SDS011;1786;52.870;9.578;2024-03-02T03:44:29;12.90;;;9.50;;
3543;SDS011;1786;52.870;9.578;2024-03-02T03:46:56;12.37;;;9.57;;
3543;SDS011;1786;52.870;9.578;2024-03-02T03:49:23;14.10;;;10.40;;
3543;SDS011;1786;52.870;9.578;2024-03-02T03:51:49;14.57;;;9.90;;
3543;SDS011;1786;52.870;9.578;2024-03-02T03:54:16;12.70;;;10.13;;
3543;SDS011;1786;52.870;9.578;2024-03-02T03:56:43;10.17;;;8.37;;
3543;SDS011;1786;52.870;9.578;2024-03-02T03:59:10;14.43;;;9.40;;
3543;SDS011;1786;52.870;9.578;2024-03-02T04:01:37;12.27;;;9.53;;
3543;SDS011;1786;52.870;9.578;2024-03-02T04:04:03;15.40;;;10.20;;
3543;SDS011;1786;52.870;9.578;2024-03-02T04:06:30;15.73;;;10.60;;
3543;SDS011;1786;52.870;9.578;2024-03-02T04:08:57;14.30;;;10.20;;
3543;SDS011;1786;52.870;9.578;2024-03-02T04:11:23;17.60;;;12.10;;
3543;SDS011;1786;52.870;9.578;2024-03-02T04:13:50;14.67;;;9.50;;
3543;SDS011;1786;52.870;9.578;2024-03-02T04:16:17;12.47;;;9.93;;
3543;SDS011;1786;52.870;9.578;2024-03-02T04:18:43;16.77;;;9.67;;
3543;SDS011;1786;52.870;9.578;2024-03-02T04:21:10;13.60;;;10.07;;
3543;SDS011;1786;52.870;9.578;2024-03-02T04:23:37;14.90;;;10.40;;
3543;SDS011;1786;52.870;9.578;2024-03-02T04:26:04;12.50;;;9.20;;
3543;SDS011;1786;52.870;9.578;2024-03-02T04:28:31;15.77;;;11.03;;
3543;SDS011;1786;52.870;9.578;2024-03-02T04:30:58;15.23;;;10.37;;
3543;SDS011;1786;52.870;9.578;2024-03-02T04:33:24;13.40;;;9.90;;
3543;SDS011;1786;52.870;9.578;2024-03-02T04:35:51;14.40;;;10.70;;
3543;SDS011;1786;52.870;9.578;2024-03-02T04:38:18;16.97;;;10.67;;
3543;SDS011;1786;52.870;9.578;2024-03-02T04:40:44;16.30;;;11.73;;
3543;SDS011;1786;52.870;9.578;2024-03-02T04:43:11;14.90;;;10.37;;
3543;SDS011;1786;52.870;9.578;2024-03-02T04:45:41;13.13;;;9.73;;
3543;SDS011;1786;52.870;9.578;2024-03-02T04:48:09;16.80;;;11.50;;
3543;SDS011;1786;52.870;9.578;2024-03-02T04:50:35;20.13;;;9.90;;
3543;SDS011;1786;52.870;9.578;2024-03-02T04:53:02;16.33;;;10.67;;
3543;SDS011;1786;52.870;9.578;2024-03-02T04:55:29;17.87;;;10.93;;
3543;SDS011;1786;52.870;9.578;2024-03-02T04:57:55;16.93;;;11.73;;
3543;SDS011;1786;52.870;9.578;2024-03-02T05:00:22;16.63;;;12.40;;
3543;SDS011;1786;52.870;9.578;2024-03-02T05:02:49;15.97;;;11.67;;
3543;SDS011;1786;52.870;9.578;2024-03-02T05:05:16;18.27;;;11.97;;
3543;SDS011;1786;52.870;9.578;2024-03-02T05:07:43;16.27;;;10.73;;
3543;SDS011;1786;52.870;9.578;2024-03-02T05:10:10;22.43;;;12.30;;
3543;SDS011;1786;52.870;9.578;2024-03-02T05:12:41;14.57;;;10.83;;
3543;SDS011;1786;52.870;9.578;2024-03-02T05:15:11;19.40;;;12.30;;
3543;SDS011;1786;52.870;9.578;2024-03-02T05:17:39;18.10;;;12.50;;
3543;SDS011;1786;52.870;9.578;2024-03-02T05:20:07;24.77;;;12.20;;
3543;SDS011;1786;52.870;9.578;2024-03-02T05:22:35;17.83;;;11.90;;
3543;SDS011;1786;52.870;9.578;2024-03-02T05:25:02;18.63;;;12.40;;
3543;SDS011;1786;52.870;9.578;2024-03-02T05:27:30;24.80;;;12.80;;
3543;SDS011;1786;52.870;9.578;2024-03-02T05:29:59;21.90;;;11.80;;
3543;SDS011;1786;52.870;9.578;2024-03-02T05:32:27;22.10;;;13.93;;
3543;SDS011;1786;52.870;9.578;2024-03-02T05:34:53;20.30;;;12.97;;
3543;SDS011;1786;52.870;9.578;2024-03-02T05:37:21;18.90;;;12.57;;
3543;SDS011;1786;52.870;9.578;2024-03-02T05:39:48;17.67;;;11.97;;
3543;SDS011;1786;52.870;9.578;2024-03-02T05:42:15;23.97;;;13.57;;
3543;SDS011;1786;52.870;9.578;2024-03-02T05:44:43;20.93;;;12.90;;
3543;SDS011;1786;52.870;9.578;2024-03-02T05:47:10;18.97;;;11.90;;
3543;SDS011;1786;52.870;9.578;2024-03-02T05:49:36;20.83;;;12.60;;
3543;SDS011;1786;52.870;9.578;2024-03-02T05:52:03;24.83;;;12.87;;
3543;SDS011;1786;52.870;9.578;2024-03-02T05:54:30;23.80;;;12.50;;
3543;SDS011;1786;52.870;9.578;2024-03-02T05:56:57;18.63;;;13.07;;
3543;SDS011;1786;52.870;9.578;2024-03-02T05:59:24;18.80;;;12.30;;
3543;SDS011;1786;52.870;9.578;2024-03-02T06:01:50;18.03;;;12.30;;
3543;SDS011;1786;52.870;9.578;2024-03-02T06:04:18;25.47;;;12.70;;
3543;SDS011;1786;52.870;9.578;2024-03-02T06:06:45;21.63;;;12.60;;
3543;SDS011;1786;52.870;9.578;2024-03-02T06:09:12;17.33;;;12.27;;
3543;SDS011;1786;52.870;9.578;2024-03-02T06:11:39;23.17;;;14.33;;
3543;SDS011;1786;52.870;9.578;2024-03-02T06:14:07;17.73;;;12.53;;
3543;SDS011;1786;52.870;9.578;2024-03-02T06:16:35;19.67;;;12.30;;
3543;SDS011;1786;52.870;9.578;2024-03-02T06:19:01;29.73;;;13.13;;
3543;SDS011;1786;52.870;9.578;2024-03-02T06:21:29;22.83;;;13.27;;
3543;SDS011;1786;52.870;9.578;2024-03-02T06:23:55;22.30;;;13.73;;
3543;SDS011;1786;52.870;9.578;2024-03-02T06:26:23;20.73;;;13.30;;
3543;SDS011;1786;52.870;9.578;2024-03-02T06:28:52;18.03;;;12.43;;
3543;SDS011;1786;52.870;9.578;2024-03-02T06:31:18;21.87;;;12.90;;
3543;SDS011;1786;52.870;9.578;2024-03-02T06:33:45;24.80;;;12.27;;
3543;SDS011;1786;52.870;9.578;2024-03-02T06:36:12;22.40;;;14.90;;
3543;SDS011;1786;52.870;9.578;2024-03-02T06:38:39;19.57;;;13.50;;
3543;SDS011;1786;52.870;9.578;2024-03-02T06:41:09;19.17;;;12.30;;
3543;SDS011;1786;52.870;9.578;2024-03-02T06:43:36;22.40;;;13.83;;
3543;SDS011;1786;52.870;9.578;2024-03-02T06:46:03;24.27;;;13.80;;
3543;SDS011;1786;52.870;9.578;2024-03-02T06:48:30;20.73;;;13.33;;
3543;SDS011;1786;52.870;9.578;2024-03-02T06:50:57;24.07;;;12.80;;
3543;SDS011;1786;52.870;9.578;2024-03-02T06:53:24;21.37;;;14.23;;
3543;SDS011;1786;52.870;9.578;2024-03-02T06:55:51;33.00;;;12.93;;
3543;SDS011;1786;52.870;9.578;2024-03-02T06:58:18;21.97;;;12.90;;
3543;SDS011;1786;52.870;9.578;2024-03-02T07:00:45;19.03;;;12.47;;
3543;SDS011;1786;52.870;9.578;2024-03-02T07:03:11;20.73;;;13.13;;
3543;SDS011;1786;52.870;9.578;2024-03-02T07:05:39;23.83;;;13.40;;
3543;SDS011;1786;52.870;9.578;2024-03-02T07:08:06;26.00;;;14.57;;
3543;SDS011;1786;52.870;9.578;2024-03-02T07:10:33;23.13;;;13.23;;
3543;SDS011;1786;52.870;9.578;2024-03-02T07:12:59;21.70;;;13.70;;
3543;SDS011;1786;52.870;9.578;2024-03-02T07:15:26;20.60;;;14.10;;
3543;SDS011;1786;52.870;9.578;2024-03-02T07:17:53;20.97;;;13.30;;
3543;SDS011;1786;52.870;9.578;2024-03-02T07:20:20;18.60;;;12.70;;
3543;SDS011;1786;52.870;9.578;2024-03-02T07:22:47;21.47;;;13.27;;
3543;SDS011;1786;52.870;9.578;2024-03-02T07:25:13;19.20;;;13.20;;
3543;SDS011;1786;52.870;9.578;2024-03-02T07:27:43;17.90;;;12.43;;
3543;SDS011;1786;52.870;9.578;2024-03-02T07:30:13;17.80;;;12.43;;
3543;SDS011;1786;52.870;9.578;2024-03-02T07:32:40;17.33;;;12.30;;
3543;SDS011;1786;52.870;9.578;2024-03-02T07:35:08;21.10;;;13.83;;
3543;SDS011;1786;52.870;9.578;2024-03-02T07:37:35;19.90;;;13.07;;
3543;SDS011;1786;52.870;9.578;2024-03-02T07:40:01;19.33;;;12.20;;
3543;SDS011;1786;52.870;9.578;2024-03-02T07:42:29;17.97;;;13.43;;
3543;SDS011;1786;52.870;9.578;2024-03-02T07:44:56;20.23;;;12.50;;
3543;SDS011;1786;52.870;9.578;2024-03-02T07:47:23;21.07;;;13.80;;
3543;SDS011;1786;52.870;9.578;2024-03-02T07:49:50;20.67;;;12.60;;
3543;SDS011;1786;52.870;9.578;2024-03-02T07:52:17;20.33;;;13.37;;
3543;SDS011;1786;52.870;9.578;2024-03-02T07:54:43;19.90;;;13.07;;
3543;SDS011;1786;52.870;9.578;2024-03-02T07:57:10;19.37;;;12.97;;
3543;SDS011;1786;52.870;9.578;2024-03-02T07:59:37;16.30;;;12.60;;
3543;SDS011;1786;52.870;9.578;2024-03-02T08:02:03;17.70;;;12.33;;
3543;SDS011;1786;52.870;9.578;2024-03-02T08:04:30;20.37;;;13.07;;
3543;SDS011;1786;52.870;9.578;2024-03-02T08:06:57;19.07;;;13.30;;
3543;SDS011;1786;52.870;9.578;2024-03-02T08:09:24;16.67;;;12.90;;
3543;SDS011;1786;52.870;9.578;2024-03-02T08:11:51;20.27;;;12.83;;
3543;SDS011;1786;52.870;9.578;2024-03-02T08:14:18;19.73;;;12.00;;
3543;SDS011;1786;52.870;9.578;2024-03-02T08:16:45;21.80;;;12.87;;
3543;SDS011;1786;52.870;9.578;2024-03-02T08:19:12;20.93;;;13.30;;
3543;SDS011;1786;52.870;9.578;2024-03-02T08:21:38;17.13;;;12.57;;
3543;SDS011;1786;52.870;9.578;2024-03-02T08:24:05;16.40;;;11.67;;
3543;SDS011;1786;52.870;9.578;2024-03-02T08:26:32;19.17;;;12.97;;
3543;SDS011;1786;52.870;9.578;2024-03-02T08:28:59;21.53;;;12.90;;
3543;SDS011;1786;52.870;9.578;2024-03-02T08:31:28;16.57;;;11.83;;
3543;SDS011;1786;52.870;9.578;2024-03-02T08:33:54;22.33;;;14.03;;
3543;SDS011;1786;52.870;9.578;2024-03-02T08:36:21;18.40;;;13.40;;
3543;SDS011;1786;52.870;9.578;2024-03-02T08:38:49;17.97;;;12.13;;
3543;SDS011;1786;52.870;9.578;2024-03-02T08:41:16;18.90;;;11.77;;
3543;SDS011;1786;52.870;9.578;2024-03-02T08:43:43;21.43;;;12.37;;
3543;SDS011;1786;52.870;9.578;2024-03-02T08:46:10;18.00;;;12.37;;
3543;SDS011;1786;52.870;9.578;2024-03-02T08:48:36;18.70;;;12.20;;
3543;SDS011;1786;52.870;9.578;2024-03-02T08:51:03;17.73;;;11.50;;
3543;SDS011;1786;52.870;9.578;2024-03-02T08:53:32;17.97;;;12.23;;
3543;SDS011;1786;52.870;9.578;2024-03-02T08:55:59;18.10;;;13.40;;
3543;SDS011;1786;52.870;9.578;2024-03-02T08:58:28;19.20;;;12.97;;
3543;SDS011;1786;52.870;9.578;2024-03-02T09:00:55;18.10;;;12.00;;
3543;SDS011;1786;52.870;9.578;2024-03-02T09:03:21;19.70;;;13.30;;
3543;SDS011;1786;52.870;9.578;2024-03-02T09:05:48;16.50;;;11.00;;
3543;SDS011;1786;52.870;9.578;2024-03-02T09:08:16;13.80;;;10.30;;
3543;SDS011;1786;52.870;9.578;2024-03-02T09:10:42;16.43;;;11.70;;
3543;SDS011;1786;52.870;9.578;2024-03-02T09:13:10;17.13;;;11.17;;
3543;SDS011;1786;52.870;9.578;2024-03-02T09:15:36;15.10;;;11.10;;
3543;SDS011;1786;52.870;9.578;2024-03-02T09:18:06;14.60;;;11.27;;
3543;SDS011;1786;52.870;9.578;2024-03-02T09:20:33;14.93;;;10.00;;
3543;SDS011;1786;52.870;9.578;2024-03-02T09:22:59;16.67;;;10.50;;
3543;SDS011;1786;52.870;9.578;2024-03-02T09:25:26;13.77;;;10.67;;
3543;SDS011;1786;52.870;9.578;2024-03-02T09:27:53;13.93;;;9.40;;
3543;SDS011;1786;52.870;9.578;2024-03-02T09:30:19;15.77;;;9.97;;
3543;SDS011;1786;52.870;9.578;2024-03-02T09:32:46;16.07;;;11.10;;
3543;SDS011;1786;52.870;9.578;2024-03-02T09:35:15;15.50;;;10.97;;
3543;SDS011;1786;52.870;9.578;2024-03-02T09:37:42;19.47;;;10.83;;
3543;SDS011;1786;52.870;9.578;2024-03-02T09:40:09;18.40;;;10.67;;
3543;SDS011;1786;52.870;9.578;2024-03-02T09:42:36;15.50;;;10.73;;
3543;SDS011;1786;52.870;9.578;2024-03-02T09:45:03;12.63;;;10.07;;
3543;SDS011;1786;52.870;9.578;2024-03-02T09:47:31;16.73;;;11.37;;
3543;SDS011;1786;52.870;9.578;2024-03-02T09:49:58;19.57;;;12.13;;
3543;SDS011;1786;52.870;9.578;2024-03-02T09:52:25;15.37;;;10.57;;
3543;SDS011;1786;52.870;9.578;2024-03-02T09:54:52;12.67;;;9.63;;
3543;SDS011;1786;52.870;9.578;2024-03-02T09:57:19;19.00;;;10.50;;
3543;SDS011;1786;52.870;9.578;2024-03-02T09:59:46;12.43;;;9.70;;
3543;SDS011;1786;52.870;9.578;2024-03-02T10:02:12;13.97;;;10.40;;
3543;SDS011;1786;52.870;9.578;2024-03-02T10:04:39;17.93;;;11.20;;
3543;SDS011;1786;52.870;9.578;2024-03-02T10:07:15;14.63;;;11.27;;
3543;SDS011;1786;52.870;9.578;2024-03-02T10:09:47;15.63;;;11.50;;
3543;SDS011;1786;52.870;9.578;2024-03-02T10:12:16;15.00;;;10.87;;
3543;SDS011;1786;52.870;9.578;2024-03-02T10:14:44;16.87;;;11.13;;
3543;SDS011;1786;52.870;9.578;2024-03-02T10:17:12;16.30;;;9.90;;
3543;SDS011;1786;52.870;9.578;2024-03-02T10:19:40;14.33;;;10.00;;
3543;SDS011;1786;52.870;9.578;2024-03-02T10:22:07;14.50;;;10.27;;
3543;SDS011;1786;52.870;9.578;2024-03-02T10:24:39;13.90;;;10.30;;
3543;SDS011;1786;52.870;9.578;2024-03-02T10:27:08;12.33;;;10.37;;
3543;SDS011;1786;52.870;9.578;2024-03-02T10:29:37;14.33;;;10.07;;
3543;SDS011;1786;52.870;9.578;2024-03-02T10:32:05;15.70;;;10.77;;
3543;SDS011;1786;52.870;9.578;2024-03-02T10:34:33;16.37;;;10.60;;
3543;SDS011;1786;52.870;9.578;2024-03-02T10:36:59;16.50;;;10.60;;
3543;SDS011;1786;52.870;9.578;2024-03-02T10:39:28;13.50;;;9.70;;
3543;SDS011;1786;52.870;9.578;2024-03-02T10:41:55;13.50;;;9.17;;
3543;SDS011;1786;52.870;9.578;2024-03-02T10:44:23;16.40;;;10.53;;
3543;SDS011;1786;52.870;9.578;2024-03-02T10:46:50;14.50;;;9.17;;
3543;SDS011;1786;52.870;9.578;2024-03-02T10:49:19;13.37;;;9.90;;
3543;SDS011;1786;52.870;9.578;2024-03-02T10:51:48;14.47;;;9.20;;
3543;SDS011;1786;52.870;9.578;2024-03-02T10:54:15;13.07;;;10.50;;
3543;SDS011;1786;52.870;9.578;2024-03-02T10:56:43;16.70;;;10.70;;
3543;SDS011;1786;52.870;9.578;2024-03-02T11:01:47;11.97;;;8.73;;
3543;SDS011;1786;52.870;9.578;2024-03-02T11:04:15;12.20;;;8.33;;
3543;SDS011;1786;52.870;9.578;2024-03-02T11:06:50;8.27;;;6.80;;
3543;SDS011;1786;52.870;9.578;2024-03-02T11:09:19;11.60;;;8.30;;
3543;SDS011;1786;52.870;9.578;2024-03-02T11:14:50;10.13;;;8.30;;
3543;SDS011;1786;52.870;9.578;2024-03-02T11:17:21;8.10;;;7.23;;
3543;SDS011;1786;52.870;9.578;2024-03-02T11:19:48;8.40;;;6.80;;
3543;SDS011;1786;52.870;9.578;2024-03-02T11:22:16;10.23;;;7.40;;
3543;SDS011;1786;52.870;9.578;2024-03-02T11:24:49;10.17;;;7.87;;
3543;SDS011;1786;52.870;9.578;2024-03-02T11:33:01;8.80;;;7.07;;
3543;SDS011;1786;52.870;9.578;2024-03-02T11:35:44;6.87;;;6.07;;
3543;SDS011;1786;52.870;9.578;2024-03-02T11:38:14;8.63;;;6.40;;
3543;SDS011;1786;52.870;9.578;2024-03-02T11:40:40;12.53;;;6.60;;
3543;SDS011;1786;52.870;9.578;2024-03-02T11:43:09;8.53;;;7.07;;
3543;SDS011;1786;52.870;9.578;2024-03-02T11:45:37;8.60;;;5.97;;
3543;SDS011;1786;52.870;9.578;2024-03-02T11:48:09;8.40;;;6.10;;
3543;SDS011;1786;52.870;9.578;2024-03-02T11:50:40;8.10;;;6.77;;
3543;SDS011;1786;52.870;9.578;2024-03-02T11:53:15;11.43;;;6.93;;
3543;SDS011;1786;52.870;9.578;2024-03-02T11:55:43;11.40;;;6.60;;
3543;SDS011;1786;52.870;9.578;2024-03-02T11:58:14;7.50;;;6.10;;
3543;SDS011;1786;52.870;9.578;2024-03-02T12:00:41;10.00;;;6.87;;
3543;SDS011;1786;52.870;9.578;2024-03-02T12:03:09;14.27;;;5.80;;
3543;SDS011;1786;52.870;9.578;2024-03-02T12:05:38;5.10;;;4.57;;
3543;SDS011;1786;52.870;9.578;2024-03-02T12:08:05;6.27;;;5.70;;
3543;SDS011;1786;52.870;9.578;2024-03-02T12:10:34;6.90;;;5.27;;
3543;SDS011;1786;52.870;9.578;2024-03-02T12:13:02;6.77;;;4.50;;
3543;SDS011;1786;52.870;9.578;2024-03-02T12:15:31;5.10;;;4.60;;
3543;SDS011;1786;52.870;9.578;2024-03-02T12:18:00;4.80;;;4.37;;
3543;SDS011;1786;52.870;9.578;2024-03-02T12:20:29;5.80;;;5.20;;
3543;SDS011;1786;52.870;9.578;2024-03-02T12:22:58;6.73;;;5.13;;
3543;SDS011;1786;52.870;9.578;2024-03-02T12:25:25;10.27;;;5.93;;
3543;SDS011;1786;52.870;9.578;2024-03-02T12:27:54;5.90;;;5.10;;
3543;SDS011;1786;52.870;9.578;2024-03-02T12:30:22;4.80;;;4.30;;
3543;SDS011;1786;52.870;9.578;2024-03-02T12:32:50;8.10;;;5.40;;
3543;SDS011;1786;52.870;9.578;2024-03-02T12:35:17;4.83;;;4.43;;
3543;SDS011;1786;52.870;9.578;2024-03-02T12:37:45;5.23;;;4.30;;
3543;SDS011;1786;52.870;9.578;2024-03-02T12:40:14;5.00;;;4.50;;
3543;SDS011;1786;52.870;9.578;2024-03-02T12:42:44;4.80;;;4.33;;
3543;SDS011;1786;52.870;9.578;2024-03-02T12:45:12;5.57;;;4.20;;
3543;SDS011;1786;52.870;9.578;2024-03-02T12:47:40;6.93;;;4.67;;
3543;SDS011;1786;52.870;9.578;2024-03-02T12:50:07;4.13;;;3.73;;
3543;SDS011;1786;52.870;9.578;2024-03-02T12:52:36;4.43;;;4.03;;
3543;SDS011;1786;52.870;9.578;2024-03-02T12:55:06;6.00;;;4.27;;
3543;SDS011;1786;52.870;9.578;2024-03-02T12:57:33;4.37;;;3.40;;
3543;SDS011;1786;52.870;9.578;2024-03-02T13:00:02;4.00;;;3.57;;
3543;SDS011;1786;52.870;9.578;2024-03-02T13:02:40;4.40;;;3.83;;
3543;SDS011;1786;52.870;9.578;2024-03-02T13:05:07;4.53;;;4.13;;
3543;SDS011;1786;52.870;9.578;2024-03-02T13:07:38;5.23;;;3.87;;
3543;SDS011;1786;52.870;9.578;2024-03-02T13:10:05;4.27;;;3.87;;
3543;SDS011;1786;52.870;9.578;2024-03-02T13:12:35;3.80;;;3.50;;
3543;SDS011;1786;52.870;9.578;2024-03-02T13:15:03;4.17;;;3.87;;
3543;SDS011;1786;52.870;9.578;2024-03-02T13:17:30;3.47;;;3.27;;
3543;SDS011;1786;52.870;9.578;2024-03-02T13:20:04;3.30;;;3.00;;
3543;SDS011;1786;52.870;9.578;2024-03-02T13:22:34;3.37;;;3.07;;
3543;SDS011;1786;52.870;9.578;2024-03-02T13:25:01;3.43;;;3.23;;
3543;SDS011;1786;52.870;9.578;2024-03-02T13:27:32;4.27;;;3.87;;
3543;SDS011;1786;52.870;9.578;2024-03-02T13:29:59;4.17;;;3.10;;
3543;SDS011;1786;52.870;9.578;2024-03-02T13:32:27;4.40;;;4.00;;
3543;SDS011;1786;52.870;9.578;2024-03-02T13:34:54;3.93;;;3.73;;
3543;SDS011;1786;52.870;9.578;2024-03-02T13:37:21;3.67;;;3.37;;
3543;SDS011;1786;52.870;9.578;2024-03-02T13:39:48;3.07;;;2.83;;
3543;SDS011;1786;52.870;9.578;2024-03-02T13:42:15;2.70;;;2.60;;
3543;SDS011;1786;52.870;9.578;2024-03-02T13:44:45;2.43;;;2.30;;
3543;SDS011;1786;52.870;9.578;2024-03-02T13:47:13;2.30;;;2.20;;
3543;SDS011;1786;52.870;9.578;2024-03-02T13:49:40;2.00;;;1.90;;
3543;SDS011;1786;52.870;9.578;2024-03-02T13:52:10;2.50;;;2.40;;
3543;SDS011;1786;52.870;9.578;2024-03-02T13:54:40;2.90;;;2.70;;
3543;SDS011;1786;52.870;9.578;2024-03-02T13:57:08;2.50;;;2.30;;
3543;SDS011;1786;52.870;9.578;2024-03-02T13:59:36;1.90;;;1.80;;
3543;SDS011;1786;52.870;9.578;2024-03-02T14:02:04;6.33;;;3.00;;
3543;SDS011;1786;52.870;9.578;2024-03-02T14:04:32;3.73;;;2.53;;
3543;SDS011;1786;52.870;9.578;2024-03-02T14:06:59;5.37;;;4.17;;
3543;SDS011;1786;52.870;9.578;2024-03-02T14:09:27;3.60;;;3.10;;
3543;SDS011;1786;52.870;9.578;2024-03-02T14:11:55;4.80;;;4.00;;
3543;SDS011;1786;52.870;9.578;2024-03-02T14:14:22;3.97;;;3.30;;
3543;SDS011;1786;52.870;9.578;2024-03-02T14:16:49;4.63;;;3.60;;
3543;SDS011;1786;52.870;9.578;2024-03-02T14:19:16;5.00;;;3.93;;
3543;SDS011;1786;52.870;9.578;2024-03-02T14:21:43;4.80;;;4.10;;
3543;SDS011;1786;52.870;9.578;2024-03-02T14:24:10;4.10;;;3.67;;
3543;SDS011;1786;52.870;9.578;2024-03-02T14:26:37;4.00;;;3.60;;
3543;SDS011;1786;52.870;9.578;2024-03-02T14:29:04;3.83;;;3.53;;
3543;SDS011;1786;52.870;9.578;2024-03-02T14:31:31;4.57;;;3.60;;
3543;SDS011;1786;52.870;9.578;2024-03-02T14:33:58;4.07;;;3.70;;
3543;SDS011;1786;52.870;9.578;2024-03-02T14:36:26;3.87;;;3.63;;
3543;SDS011;1786;52.870;9.578;2024-03-02T14:38:54;3.10;;;2.90;;
3543;SDS011;1786;52.870;9.578;2024-03-02T14:41:22;3.60;;;3.30;;
3543;SDS011;1786;52.870;9.578;2024-03-02T14:43:51;2.10;;;1.90;;
3543;SDS011;1786;52.870;9.578;2024-03-02T14:46:18;3.00;;;2.10;;
3543;SDS011;1786;52.870;9.578;2024-03-02T14:48:45;4.37;;;2.00;;
3543;SDS011;1786;52.870;9.578;2024-03-02T14:51:13;1.87;;;1.77;;
3543;SDS011;1786;52.870;9.578;2024-03-02T14:53:41;2.37;;;2.17;;
3543;SDS011;1786;52.870;9.578;2024-03-02T14:56:08;2.53;;;2.33;;
3543;SDS011;1786;52.870;9.578;2024-03-02T14:58:35;2.57;;;2.20;;
3543;SDS011;1786;52.870;9.578;2024-03-02T15:01:03;2.77;;;2.10;;
3543;SDS011;1786;52.870;9.578;2024-03-02T15:03:32;2.70;;;2.50;;
3543;SDS011;1786;52.870;9.578;2024-03-02T15:05:59;2.33;;;2.23;;
3543;SDS011;1786;52.870;9.578;2024-03-02T15:08:26;1.60;;;1.50;;
3543;SDS011;1786;52.870;9.578;2024-03-02T15:10:52;2.10;;;2.00;;
3543;SDS011;1786;52.870;9.578;2024-03-02T15:13:22;3.67;;;2.77;;
3543;SDS011;1786;52.870;9.578;2024-03-02T15:15:49;2.53;;;2.00;;
3543;SDS011;1786;52.870;9.578;2024-03-02T15:18:16;2.30;;;2.20;;
3543;SDS011;1786;52.870;9.578;2024-03-02T15:20:43;3.33;;;3.03;;